createdAt,value
2024-03-05T00:01:15.522Z,18.27
2024-03-05T00:03:44.290Z,14.27
2024-03-05T00:06:12.462Z,15.20
2024-03-05T00:08:40.573Z,17.27
2024-03-05T00:11:08.916Z,21.20
2024-03-05T00:13:38.541Z,20.40
2024-03-05T00:16:07.087Z,17.53
2024-03-05T00:18:35.277Z,22.07
2024-03-05T00:21:03.378Z,16.83
2024-03-05T00:23:31.446Z,20.67
2024-03-05T00:25:59.541Z,17.03
2024-03-05T00:28:27.583Z,16.97
2024-03-05T00:30:56.980Z,21.60
2024-03-05T00:33:25.905Z,19.27
2024-03-05T00:35:54.318Z,21.43
2024-03-05T00:38:28.848Z,24.50
2024-03-05T00:41:02.066Z,25.50
2024-03-05T00:43:30.207Z,22.43
2024-03-05T00:45:59.740Z,21.63
2024-03-05T00:48:29.044Z,28.23
2024-03-05T00:50:57.101Z,17.87
2024-03-05T00:53:25.146Z,15.80
2024-03-05T00:55:53.193Z,18.20
2024-03-05T00:58:21.902Z,22.83
2024-03-05T01:00:50.171Z,16.70
2024-03-05T01:03:20.033Z,16.80
2024-03-05T01:05:48.238Z,13.93
2024-03-05T01:08:16.319Z,19.23
2024-03-05T01:10:46.753Z,16.17
2024-03-05T01:13:15.612Z,21.67
2024-03-05T01:15:43.794Z,18.67
2024-03-05T01:18:11.958Z,23.63
2024-03-05T01:20:42.917Z,20.33
2024-03-05T01:23:11.675Z,18.43
2024-03-05T01:25:39.912Z,19.67
2024-03-05T01:28:08.844Z,21.53
2024-03-05T01:30:37.993Z,18.57
2024-03-05T01:33:10.585Z,18.13
2024-03-05T01:35:39.419Z,25.53
2024-03-05T01:38:08.923Z,19.73
2024-03-05T01:40:37.004Z,15.97
2024-03-05T01:43:05.414Z,19.73
2024-03-05T01:45:33.469Z,21.40
2024-03-05T01:48:01.792Z,18.67
2024-03-05T01:50:30.494Z,18.00
2024-03-05T01:52:59.299Z,22.20
2024-03-05T01:55:28.797Z,17.03
2024-03-05T01:57:58.249Z,20.20
2024-03-05T02:00:27.291Z,18.83
2024-03-05T02:02:56.832Z,14.90
2024-03-05T02:05:25.137Z,17.20
2024-03-05T02:07:55.398Z,17.30
2024-03-05T02:10:23.561Z,21.17
2024-03-05T02:12:53.359Z,18.30
2024-03-05T02:15:22.185Z,17.23
2024-03-05T02:17:50.321Z,18.23
2024-03-05T02:20:18.518Z,17.33
2024-03-05T02:22:48.078Z,19.43
2024-03-05T02:25:18.666Z,15.50
2024-03-05T02:27:47.798Z,16.07
2024-03-05T02:30:16.739Z,15.80
2024-03-05T02:32:45.300Z,21.97
2024-03-05T02:35:13.455Z,22.77
2024-03-05T02:37:42.620Z,16.40
2024-03-05T02:40:14.599Z,17.03
2024-03-05T02:42:43.306Z,19.00
2024-03-05T02:45:14.167Z,15.83
2024-03-05T02:47:42.685Z,15.70
2024-03-05T02:50:11.922Z,18.87
2024-03-05T02:52:41.148Z,14.00
2024-03-05T02:55:11.006Z,19.33
2024-03-05T02:57:42.315Z,17.63
2024-03-05T03:00:14.714Z,13.87
2024-03-05T03:02:42.865Z,19.53
2024-03-05T03:05:11.312Z,21.33
2024-03-05T03:07:39.406Z,15.47
2024-03-05T03:10:07.909Z,19.00
2024-03-05T03:12:35.927Z,20.80
2024-03-05T03:15:08.230Z,22.10
2024-03-05T03:17:36.556Z,15.57
2024-03-05T03:20:05.138Z,20.40
2024-03-05T03:22:33.588Z,19.10
2024-03-05T03:25:01.612Z,29.20
2024-03-05T03:27:31.143Z,47.20
2024-03-05T03:29:59.831Z,16.43
2024-03-05T03:32:29.224Z,19.13
2024-03-05T03:34:57.391Z,18.60
2024-03-05T03:37:25.509Z,19.20
2024-03-05T03:39:53.605Z,20.07
2024-03-05T03:42:21.575Z,19.50
2024-03-05T03:44:49.613Z,19.47
2024-03-05T03:47:17.673Z,15.80
2024-03-05T03:49:49.384Z,22.33
2024-03-05T03:52:17.565Z,16.30
2024-03-05T03:54:45.621Z,18.33
2024-03-05T03:57:14.512Z,16.30
2024-03-05T03:59:42.821Z,16.73
2024-03-05T04:02:10.940Z,18.63
2024-03-05T04:04:39.077Z,16.27
2024-03-05T04:07:08.597Z,22.67
2024-03-05T04:09:36.619Z,17.63
2024-03-05T04:12:04.787Z,19.70
2024-03-05T04:14:32.758Z,17.43
2024-03-05T04:17:00.872Z,18.23
2024-03-05T04:19:29.627Z,19.80
2024-03-05T04:21:57.739Z,15.40
2024-03-05T04:24:27.237Z,21.20
2024-03-05T04:27:03.929Z,16.27
2024-03-05T04:29:32.065Z,18.10
2024-03-05T04:32:09.776Z,20.60
2024-03-05T04:34:40.812Z,15.20
2024-03-05T04:37:12.033Z,16.83
2024-03-05T04:39:44.008Z,16.10
2024-03-05T04:42:12.999Z,17.53
2024-03-05T04:44:43.764Z,19.53
2024-03-05T04:47:11.855Z,17.80
2024-03-05T04:49:39.973Z,22.50
2024-03-05T04:52:08.388Z,22.97
2024-03-05T04:54:36.484Z,13.97
2024-03-05T04:57:06.697Z,17.70
2024-03-05T04:59:34.998Z,21.97
2024-03-05T05:02:03.347Z,18.23
2024-03-05T05:04:31.679Z,21.43
2024-03-05T05:06:59.756Z,20.17
2024-03-05T05:09:27.795Z,15.43
2024-03-05T05:11:55.989Z,14.50
2024-03-05T05:14:25.402Z,18.73
2024-03-05T05:16:53.700Z,19.50
2024-03-05T05:19:21.860Z,18.80
2024-03-05T05:21:50.031Z,19.87
2024-03-05T05:24:18.067Z,15.20
2024-03-05T05:26:46.073Z,16.37
2024-03-05T05:29:20.583Z,16.90
2024-03-05T05:31:56.979Z,21.20
2024-03-05T05:34:25.000Z,23.10
2024-03-05T05:36:53.001Z,17.50
2024-03-05T05:39:25.440Z,15.73
2024-03-05T05:41:54.416Z,19.83
2024-03-05T05:44:22.667Z,18.97
2024-03-05T05:46:50.947Z,20.10
2024-03-05T05:49:22.063Z,17.27
2024-03-05T05:51:50.454Z,26.63
2024-03-05T05:54:22.573Z,15.60
2024-03-05T05:56:51.447Z,17.70
2024-03-05T05:59:20.005Z,18.97
2024-03-05T06:01:48.748Z,22.27
2024-03-05T06:04:17.774Z,18.60
2024-03-05T06:06:47.132Z,15.93
2024-03-05T06:09:23.198Z,15.97
2024-03-05T06:11:51.364Z,23.30
2024-03-05T06:14:20.301Z,17.07
2024-03-05T06:16:48.383Z,19.90
2024-03-05T06:19:16.493Z,16.67
2024-03-05T06:21:45.231Z,26.70
2024-03-05T06:24:14.835Z,17.73
2024-03-05T06:26:42.819Z,24.70
2024-03-05T06:29:12.964Z,23.30
2024-03-05T06:31:40.996Z,20.77
2024-03-05T06:34:12.209Z,18.33
2024-03-05T06:36:40.405Z,18.37
2024-03-05T06:39:10.175Z,17.50
2024-03-05T06:41:39.547Z,16.90
2024-03-05T06:44:12.300Z,30.60
2024-03-05T06:46:42.644Z,17.27
2024-03-05T06:49:16.162Z,21.63
2024-03-05T06:51:54.288Z,18.03
2024-03-05T06:54:40.243Z,24.73
2024-03-05T06:57:09.640Z,23.20
2024-03-05T06:59:37.836Z,19.67
2024-03-05T07:02:06.956Z,19.27
2024-03-05T07:04:36.280Z,17.27
2024-03-05T07:07:04.429Z,19.87
2024-03-05T07:09:33.120Z,29.07
2024-03-05T07:12:02.339Z,19.77
2024-03-05T07:14:33.209Z,26.27
2024-03-05T07:17:01.337Z,18.90
2024-03-05T07:19:29.488Z,22.10
2024-03-05T07:21:57.550Z,17.03
2024-03-05T07:24:25.527Z,20.70
2024-03-05T07:27:01.147Z,20.27
2024-03-05T07:29:37.647Z,20.07
2024-03-05T07:32:06.496Z,20.10
2024-03-05T07:34:36.262Z,18.90
2024-03-05T07:37:06.926Z,21.53
2024-03-05T07:39:34.947Z,20.27
2024-03-05T07:42:03.532Z,22.67
2024-03-05T07:44:32.876Z,19.90
2024-03-05T07:47:02.727Z,26.27
2024-03-05T07:49:30.841Z,17.50
2024-03-05T07:51:58.825Z,18.57
2024-03-05T07:54:26.823Z,17.73
2024-03-05T07:56:55.009Z,18.90
2024-03-05T07:59:23.067Z,21.70
2024-03-05T08:01:51.047Z,21.20
2024-03-05T08:04:20.511Z,15.83
2024-03-05T08:06:48.501Z,21.67
2024-03-05T08:09:16.626Z,20.90
2024-03-05T08:11:44.659Z,22.00
2024-03-05T08:14:12.779Z,17.57
2024-03-05T08:16:41.182Z,16.80
2024-03-05T08:19:09.581Z,19.43
2024-03-05T08:21:39.054Z,24.30
2024-03-05T08:24:09.473Z,20.93
2024-03-05T08:26:37.491Z,22.47
2024-03-05T08:29:05.623Z,17.40
2024-03-05T08:31:33.757Z,16.47
2024-03-05T08:34:05.320Z,20.20
2024-03-05T08:36:37.585Z,20.23
2024-03-05T08:39:18.628Z,16.77
2024-03-05T08:41:48.222Z,22.13
2024-03-05T08:44:17.734Z,15.57
2024-03-05T08:46:45.811Z,21.93
2024-03-05T08:49:13.818Z,21.37
2024-03-05T08:51:41.967Z,16.03
2024-03-05T08:54:12.651Z,15.33
2024-03-05T08:56:41.900Z,17.40
2024-03-05T08:59:10.364Z,15.30
2024-03-05T09:01:38.497Z,16.80
2024-03-05T09:04:07.388Z,15.07
2024-03-05T09:06:35.494Z,17.60
2024-03-05T09:09:03.541Z,15.60
2024-03-05T09:11:33.001Z,15.03
2024-03-05T09:14:01.137Z,22.53
2024-03-05T09:16:29.620Z,19.67
2024-03-05T09:18:57.664Z,16.13
2024-03-05T09:21:25.832Z,15.53
2024-03-05T09:23:53.827Z,19.43
2024-03-05T09:26:21.890Z,15.13
2024-03-05T09:28:51.327Z,19.60
2024-03-05T09:31:20.069Z,13.57
2024-03-05T09:33:48.158Z,14.03
2024-03-05T09:36:16.189Z,17.30
2024-03-05T09:38:44.321Z,13.70
2024-03-05T09:41:14.018Z,18.77
2024-03-05T09:43:43.188Z,15.60
2024-03-05T09:46:15.783Z,18.03
2024-03-05T09:48:43.811Z,16.43
2024-03-05T09:51:13.755Z,12.90
2024-03-05T09:53:40.787Z,16.80
2024-03-05T09:56:09.469Z,12.77
2024-03-05T09:58:40.352Z,12.97
2024-03-05T10:01:10.748Z,13.00
2024-03-05T10:03:40.696Z,13.43
2024-03-05T10:06:09.518Z,14.73
2024-03-05T10:08:37.560Z,19.37
2024-03-05T10:11:07.680Z,14.37
2024-03-05T10:13:37.965Z,11.33
2024-03-05T10:16:19.392Z,13.67
2024-03-05T10:18:51.029Z,11.97
2024-03-05T10:21:20.350Z,15.63
2024-03-05T10:23:49.658Z,13.07
2024-03-05T10:26:25.848Z,12.90
2024-03-05T10:28:54.446Z,11.67
2024-03-05T10:31:24.600Z,13.30
2024-03-05T10:33:55.456Z,13.00
2024-03-05T10:36:27.518Z,12.80
2024-03-05T10:38:55.567Z,10.83
2024-03-05T10:41:26.918Z,11.43
2024-03-05T10:43:58.499Z,12.60
2024-03-05T10:46:26.586Z,9.90
2024-03-05T10:48:56.217Z,10.13
2024-03-05T10:51:27.755Z,11.67
2024-03-05T10:53:56.046Z,9.73
2024-03-05T10:56:29.410Z,12.77
2024-03-05T10:59:24.103Z,10.77
2024-03-05T11:01:54.669Z,11.07
2024-03-05T11:04:25.022Z,12.50
2024-03-05T11:06:56.847Z,12.40
2024-03-05T11:09:25.354Z,14.23
2024-03-05T11:11:59.352Z,14.27
2024-03-05T11:14:28.420Z,12.83
2024-03-05T11:16:59.878Z,11.17
2024-03-05T11:19:29.408Z,18.87
2024-03-05T11:21:57.951Z,13.77
2024-03-05T11:24:25.977Z,14.53
2024-03-05T11:27:02.951Z,12.90
2024-03-05T11:29:42.746Z,11.53
2024-03-05T11:32:12.749Z,15.67
2024-03-05T11:34:49.012Z,13.63
2024-03-05T11:37:18.140Z,17.30
2024-03-05T11:39:46.395Z,13.03
2024-03-05T11:42:20.892Z,18.40
2024-03-05T11:44:56.013Z,11.40
2024-03-05T11:47:25.390Z,18.23
2024-03-05T11:49:54.907Z,11.83
2024-03-05T11:52:23.507Z,11.63
2024-03-05T11:55:00.248Z,11.90
2024-03-05T11:57:28.842Z,13.30
2024-03-05T11:59:56.934Z,15.60
2024-03-05T12:02:25.390Z,13.53
2024-03-05T12:04:55.069Z,18.30
2024-03-05T12:07:23.877Z,17.17
2024-03-05T12:09:57.336Z,14.90
2024-03-05T12:12:26.046Z,14.13
2024-03-05T12:14:55.729Z,11.30
2024-03-05T12:17:25.272Z,14.90
2024-03-05T12:20:09.171Z,17.43
2024-03-05T12:22:38.970Z,13.77
2024-03-05T12:25:09.432Z,13.47
2024-03-05T12:27:38.661Z,15.43
2024-03-05T12:30:08.872Z,10.80
2024-03-05T12:32:37.965Z,12.70
2024-03-05T12:35:08.205Z,13.90
2024-03-05T12:37:37.258Z,11.97
2024-03-05T12:40:08.835Z,14.20
2024-03-05T12:42:37.129Z,12.87
2024-03-05T12:45:09.389Z,13.30
2024-03-05T12:47:39.460Z,11.27
2024-03-05T12:50:10.812Z,14.17
2024-03-05T12:52:38.986Z,10.00
2024-03-05T12:55:08.597Z,10.83
2024-03-05T12:57:36.888Z,11.33
2024-03-05T13:00:11.751Z,13.03
2024-03-05T13:02:40.175Z,15.80
2024-03-05T13:05:10.394Z,9.90
2024-03-05T13:07:39.334Z,9.20
2024-03-05T13:10:12.614Z,7.73
2024-03-05T13:12:43.080Z,9.33
2024-03-05T13:15:12.142Z,12.63
2024-03-05T13:17:40.259Z,10.93
2024-03-05T13:20:19.717Z,10.73
2024-03-05T13:22:48.208Z,17.03
2024-03-05T13:25:16.813Z,11.77
2024-03-05T13:27:44.993Z,11.57
2024-03-05T13:30:16.002Z,10.10
2024-03-05T13:32:44.499Z,9.17
2024-03-05T13:35:15.342Z,17.10
2024-03-05T13:37:43.991Z,15.00
2024-03-05T13:40:14.086Z,8.70
2024-03-05T13:42:42.230Z,9.30
2024-03-05T13:45:13.650Z,13.70
2024-03-05T13:47:42.100Z,10.67
2024-03-05T13:50:11.854Z,12.80
2024-03-05T13:52:43.530Z,11.37
2024-03-05T13:55:13.008Z,13.23
2024-03-05T13:57:41.572Z,10.27
2024-03-05T14:00:15.050Z,9.97
2024-03-05T14:02:43.110Z,8.90
2024-03-05T14:05:12.413Z,10.47
2024-03-05T14:07:41.907Z,11.37
2024-03-05T14:10:12.455Z,10.20
2024-03-05T14:12:41.785Z,9.60
2024-03-05T14:15:21.855Z,10.50
2024-03-05T14:17:51.337Z,10.93
2024-03-05T14:20:28.941Z,12.43
2024-03-05T14:23:00.466Z,8.63
2024-03-05T14:25:28.802Z,9.67
2024-03-05T14:27:56.838Z,9.90
2024-03-05T14:30:27.047Z,9.27
2024-03-05T14:32:59.072Z,9.40
2024-03-05T14:35:27.105Z,11.10
2024-03-05T14:37:55.689Z,9.20
2024-03-05T14:40:25.899Z,9.60
2024-03-05T14:42:53.971Z,9.20
2024-03-05T14:45:23.575Z,8.30
2024-03-05T14:47:51.639Z,12.57
2024-03-05T14:50:20.573Z,14.40
2024-03-05T14:52:48.698Z,11.97
2024-03-05T14:55:16.882Z,9.27
2024-03-05T14:57:46.807Z,12.77
2024-03-05T15:00:17.150Z,12.50
2024-03-05T15:02:47.372Z,10.83
2024-03-05T15:05:15.887Z,9.90
2024-03-05T15:07:45.020Z,12.23
2024-03-05T15:10:14.508Z,11.30
2024-03-05T15:12:44.832Z,9.37
2024-03-05T15:15:14.790Z,14.20
2024-03-05T15:17:42.994Z,9.20
2024-03-05T15:20:12.891Z,13.03
2024-03-05T15:22:41.669Z,9.83
2024-03-05T15:25:11.122Z,9.63
2024-03-05T15:27:40.493Z,12.27
2024-03-05T15:30:14.709Z,10.07
2024-03-05T15:32:48.713Z,9.17
2024-03-05T15:35:18.030Z,8.97
2024-03-05T15:37:47.095Z,9.73
2024-03-05T15:40:19.681Z,9.30
2024-03-05T15:42:48.680Z,10.47
2024-03-05T15:45:16.662Z,11.10
2024-03-05T15:47:45.885Z,10.63
2024-03-05T15:50:19.072Z,8.80
2024-03-05T15:52:48.802Z,12.83
2024-03-05T15:55:18.365Z,10.80
2024-03-05T15:57:58.199Z,9.60
2024-03-05T16:00:36.413Z,8.30
2024-03-05T16:03:06.644Z,9.70
2024-03-05T16:05:43.450Z,12.40
2024-03-05T16:08:22.165Z,8.70
2024-03-05T16:10:51.916Z,10.10
2024-03-05T16:13:19.992Z,10.10
2024-03-05T16:15:48.230Z,11.30
2024-03-05T16:18:17.199Z,13.13
2024-03-05T16:20:47.440Z,10.07
2024-03-05T16:23:15.762Z,10.93
2024-03-05T16:25:43.862Z,10.17
2024-03-05T16:28:12.434Z,10.50
2024-03-05T16:30:40.939Z,12.23
2024-03-05T16:33:09.068Z,14.70
2024-03-05T16:35:42.269Z,10.13
2024-03-05T16:38:15.219Z,9.70
2024-03-05T16:40:43.697Z,11.50
2024-03-05T16:45:41.317Z,14.73
2024-03-05T16:48:11.042Z,10.20
2024-03-05T16:50:40.321Z,15.77
2024-03-05T16:53:09.942Z,10.43
2024-03-05T16:55:40.691Z,12.33
2024-03-05T16:58:12.658Z,16.07
2024-03-05T17:00:48.809Z,10.43
2024-03-05T17:03:19.931Z,11.30
2024-03-05T17:05:51.861Z,12.87
2024-03-05T17:08:22.078Z,11.03
2024-03-05T17:10:52.313Z,9.40
2024-03-05T17:13:23.027Z,14.90
2024-03-05T17:15:56.352Z,13.70
2024-03-05T17:18:25.382Z,13.97
2024-03-05T17:20:54.994Z,12.53
2024-03-05T17:23:26.685Z,11.93
2024-03-05T17:25:57.864Z,11.67
2024-03-05T17:28:27.602Z,13.80
2024-03-05T17:30:57.085Z,9.47
2024-03-05T17:33:25.791Z,10.50
2024-03-05T17:35:56.494Z,8.83
2024-03-05T17:38:26.292Z,10.57
2024-03-05T17:40:56.779Z,11.30
2024-03-05T17:43:25.051Z,10.87
2024-03-05T17:45:54.227Z,11.60
2024-03-05T17:48:22.714Z,8.50
2024-03-05T17:50:50.729Z,9.23
2024-03-05T17:53:18.920Z,10.27
2024-03-05T17:55:47.157Z,9.77
2024-03-05T17:58:17.575Z,8.90
2024-03-05T18:00:47.002Z,10.53
2024-03-05T18:03:16.367Z,14.27
2024-03-05T18:05:46.285Z,10.73
2024-03-05T18:08:14.812Z,8.40
2024-03-05T18:10:43.544Z,8.37
2024-03-05T18:13:11.916Z,10.53
2024-03-05T18:15:41.457Z,8.70
2024-03-05T18:18:09.555Z,8.83
2024-03-05T18:20:37.613Z,10.93
2024-03-05T18:23:07.183Z,9.93
2024-03-05T18:25:36.699Z,9.00
2024-03-05T18:28:06.684Z,10.20
2024-03-05T18:30:36.786Z,8.10
2024-03-05T18:33:08.886Z,10.80
2024-03-05T18:35:38.872Z,10.23
2024-03-05T18:38:20.146Z,7.73
2024-03-05T18:40:57.899Z,9.23
2024-03-05T18:43:28.445Z,11.10
2024-03-05T18:45:57.261Z,10.47
2024-03-05T18:48:26.778Z,7.40
2024-03-05T18:50:54.819Z,9.00
2024-03-05T18:53:31.900Z,11.80
2024-03-05T18:56:07.942Z,8.07
2024-03-05T18:58:36.267Z,10.43
2024-03-05T19:01:04.368Z,11.97
2024-03-05T19:03:33.844Z,10.43
2024-03-05T19:06:01.834Z,11.70
2024-03-05T19:08:30.381Z,9.67
2024-03-05T19:10:58.497Z,12.33
2024-03-05T19:13:26.630Z,8.93
2024-03-05T19:15:54.756Z,10.33
2024-03-05T19:18:22.840Z,10.13
2024-03-05T19:20:52.324Z,11.13
2024-03-05T19:23:20.578Z,10.33
2024-03-05T19:25:48.749Z,9.57
2024-03-05T19:28:16.872Z,9.83
2024-03-05T19:30:45.001Z,8.97
2024-03-05T19:33:13.135Z,9.47
2024-03-05T19:35:41.418Z,9.90
2024-03-05T19:38:11.094Z,12.23
2024-03-05T19:40:39.193Z,13.10
2024-03-05T19:43:10.127Z,8.83
2024-03-05T19:45:38.119Z,7.87
2024-03-05T19:48:07.035Z,7.87
2024-03-05T19:50:36.213Z,9.90
2024-03-05T19:53:04.740Z,7.30
2024-03-05T19:55:34.863Z,11.80
2024-03-05T19:58:03.178Z,9.57
2024-03-05T20:00:31.307Z,17.33
2024-03-05T20:03:00.348Z,8.57
2024-03-05T20:05:28.657Z,11.23
2024-03-05T20:07:56.813Z,11.27
2024-03-05T20:10:26.353Z,9.00
2024-03-05T20:12:57.516Z,6.70
2024-03-05T20:15:25.883Z,10.37
2024-03-05T20:17:55.442Z,11.13
2024-03-05T20:20:23.932Z,6.90
2024-03-05T20:22:52.237Z,9.80
2024-03-05T20:25:22.673Z,11.70
2024-03-05T20:27:52.336Z,12.13
2024-03-05T20:30:23.668Z,9.23
2024-03-05T20:32:52.628Z,8.10
2024-03-05T20:35:21.358Z,9.67
2024-03-05T20:37:51.916Z,9.30
2024-03-05T20:40:21.987Z,9.50
2024-03-05T20:42:50.153Z,12.43
2024-03-05T20:45:19.696Z,7.70
2024-03-05T20:47:49.816Z,8.20
2024-03-05T20:50:19.165Z,8.43
2024-03-05T20:52:47.389Z,7.00
2024-03-05T20:55:15.631Z,7.60
2024-03-05T20:57:47.008Z,8.10
2024-03-05T21:00:19.942Z,8.57
2024-03-05T21:02:52.910Z,9.70
2024-03-05T21:05:21.114Z,11.10
2024-03-05T21:07:54.919Z,9.40
2024-03-05T21:10:23.509Z,8.20
2024-03-05T21:12:51.841Z,7.60
2024-03-05T21:15:21.372Z,7.93
2024-03-05T21:17:51.908Z,9.33
2024-03-05T21:20:20.647Z,8.33
2024-03-05T21:22:49.525Z,7.90
2024-03-05T21:25:18.920Z,6.37
2024-03-05T21:27:47.049Z,12.10
2024-03-05T21:30:15.286Z,7.47
2024-03-05T21:32:43.831Z,7.87
2024-03-05T21:35:13.422Z,6.40
2024-03-05T21:37:42.583Z,10.30
2024-03-05T21:40:14.340Z,9.03
2024-03-05T21:42:45.382Z,11.23
2024-03-05T21:45:16.168Z,7.50
2024-03-05T21:47:45.883Z,8.00
2024-03-05T21:50:15.622Z,7.13
2024-03-05T21:52:46.357Z,9.87
2024-03-05T21:55:16.582Z,17.97
2024-03-05T21:57:44.973Z,11.90
2024-03-05T22:00:15.433Z,13.53
2024-03-05T22:02:44.213Z,10.47
2024-03-05T22:05:13.589Z,8.80
2024-03-05T22:07:43.244Z,9.40
2024-03-05T22:10:12.994Z,8.40
2024-03-05T22:12:41.805Z,9.60
2024-03-05T22:15:11.086Z,8.93
2024-03-05T22:17:39.819Z,10.83
2024-03-05T22:20:10.307Z,9.00
2024-03-05T22:22:40.070Z,7.83
2024-03-05T22:25:10.198Z,7.73
2024-03-05T22:27:38.265Z,8.03
2024-03-05T22:30:08.757Z,9.93
2024-03-05T22:32:37.501Z,8.77
2024-03-05T22:35:11.360Z,8.00
2024-03-05T22:37:41.100Z,8.10
2024-03-05T22:40:13.253Z,9.93
2024-03-05T22:42:41.346Z,8.63
2024-03-05T22:45:11.409Z,9.00
2024-03-05T22:47:39.940Z,9.03
2024-03-05T22:50:10.499Z,10.90
2024-03-05T22:52:38.876Z,10.40
2024-03-05T22:55:07.479Z,7.13
2024-03-05T22:57:37.229Z,8.53
2024-03-05T23:00:14.106Z,8.30
2024-03-05T23:02:42.331Z,8.40
2024-03-05T23:05:11.444Z,8.00
2024-03-05T23:07:39.690Z,9.30
2024-03-05T23:10:10.028Z,10.97
2024-03-05T23:12:39.413Z,7.80
2024-03-05T23:15:08.056Z,9.83
2024-03-05T23:17:36.082Z,7.70
2024-03-05T23:20:09.201Z,9.60
2024-03-05T23:22:37.399Z,9.90
2024-03-05T23:25:07.479Z,12.67
2024-03-05T23:27:35.711Z,10.30
2024-03-05T23:30:07.369Z,8.10
2024-03-05T23:32:35.438Z,10.93
2024-03-05T23:35:04.321Z,8.83
2024-03-05T23:37:32.373Z,8.73
2024-03-05T23:40:00.479Z,9.20
2024-03-05T23:42:28.818Z,11.23
2024-03-05T23:44:56.845Z,10.80
2024-03-05T23:47:26.475Z,9.30
2024-03-05T23:49:54.948Z,12.43
2024-03-05T23:52:23.112Z,8.73
2024-03-05T23:54:51.095Z,13.83
2024-03-05T23:57:19.171Z,8.90
2024-03-05T23:59:47.223Z,8.10
